Time;durP1;ratioP1;P1;durP2;ratioP2;P2;SDS_P1;SDS_P2;PMS_P1;PMS_P2;Temp;Humidity;BMP_temperature;BMP_pressure;BME280_temperature;BME280_humidity;BME280_pressure;Samples;Min_cycle;Max_cycle;Signal;HPM_P1;HPM_P2
2023/01/25 00:02:17;;;;;;;52.95;31.08;;;0.90;99.90;;;;;;5092114;28;20046;-35
2023/01/25 00:04:43;;;;;;;52.05;30.85;;;0.80;99.90;;;;;;5074277;28;20047;-35
2023/01/25 00:07:08;;;;;;;51.85;30.95;;;0.80;99.90;;;;;;5073765;28;20040;-35
2023/01/25 00:09:34;;;;;;;55.88;30.90;;;0.80;99.90;;;;;;5074517;28;20044;-35
2023/01/25 00:12:00;;;;;;;50.15;30.13;;;0.80;99.90;;;;;;5074085;28;20115;-35
2023/01/25 00:14:26;;;;;;;55.17;31.77;;;0.80;99.90;;;;;;5056781;28;20051;-35
2023/01/25 00:16:52;;;;;;;51.03;30.70;;;0.80;99.90;;;;;;5055894;28;20033;-35
2023/01/25 00:19:18;;;;;;;49.13;29.13;;;0.70;99.90;;;;;;5074135;28;20123;-35
2023/01/25 00:21:44;;;;;;;50.47;29.42;;;0.80;99.90;;;;;;5074115;28;20392;-35
2023/01/25 00:24:13;;;;;;;47.50;28.90;;;0.70;99.90;;;;;;5074038;28;20117;-35
2023/01/25 00:26:42;;;;;;;52.30;30.05;;;0.70;99.90;;;;;;5073949;28;20040;-35
2023/01/25 00:29:11;;;;;;;53.22;30.00;;;0.70;99.90;;;;;;5073685;28;20544;-35
2023/01/25 00:31:56;;;;;;;52.50;30.27;;;0.70;99.90;;;;;;5074030;28;20036;-35
2023/01/25 00:34:24;;;;;;;53.25;30.52;;;0.70;99.90;;;;;;5073921;28;20401;-35
2023/01/25 00:37:01;;;;;;;57.08;32.00;;;0.70;99.90;;;;;;5074198;28;20443;-34
2023/01/25 00:39:27;;;;;;;52.47;30.35;;;0.60;99.90;;;;;;5073898;28;20067;-34
2023/01/25 00:41:53;;;;;;;52.85;31.42;;;0.70;99.90;;;;;;5074025;28;20125;-35
2023/01/25 00:44:19;;;;;;;53.97;30.27;;;0.60;99.90;;;;;;5073771;28;20070;-35
2023/01/25 00:46:45;;;;;;;51.20;30.23;;;0.60;99.90;;;;;;5073891;28;20044;-35
2023/01/25 00:49:18;;;;;;;52.60;30.13;;;0.60;99.90;;;;;;5074107;28;20101;-35
2023/01/25 00:51:44;;;;;;;48.75;29.10;;;0.60;99.90;;;;;;5056825;28;20071;-35
2023/01/25 00:54:10;;;;;;;53.08;30.25;;;0.60;99.90;;;;;;5073951;28;20072;-35
2023/01/25 00:56:35;;;;;;;53.38;30.35;;;0.60;99.90;;;;;;5073936;28;20497;-35
2023/01/25 00:59:01;;;;;;;52.00;29.95;;;0.60;99.90;;;;;;5056996;28;20036;-35
2023/01/25 01:01:27;;;;;;;55.63;33.30;;;0.60;99.90;;;;;;5073400;28;20109;-35
2023/01/25 01:03:53;;;;;;;52.55;31.48;;;0.60;99.90;;;;;;5073625;28;20489;-34
2023/01/25 01:06:18;;;;;;;50.10;30.25;;;0.60;99.90;;;;;;5075533;28;20047;-35
2023/01/25 01:08:44;;;;;;;50.45;30.48;;;0.60;99.90;;;;;;5057825;28;20037;-35
2023/01/25 01:11:11;;;;;;;51.15;31.20;;;0.60;99.90;;;;;;5073917;28;20048;-35
2023/01/25 01:13:38;;;;;;;55.95;32.08;;;0.60;99.90;;;;;;5076690;28;20040;-35
2023/01/25 01:16:10;;;;;;;53.35;30.63;;;0.60;99.90;;;;;;5077481;28;20043;-35
2023/01/25 01:18:44;;;;;;;53.03;30.33;;;0.60;99.90;;;;;;5077064;28;20118;-35
2023/01/25 01:21:11;;;;;;;52.90;32.25;;;0.50;99.90;;;;;;5081142;28;20169;-35
2023/01/25 01:23:38;;;;;;;49.35;29.77;;;0.50;99.90;;;;;;5097726;28;20504;-35
2023/01/25 01:26:06;;;;;;;53.10;31.20;;;0.60;99.90;;;;;;5080633;28;20059;-35
2023/01/25 01:28:33;;;;;;;51.65;30.40;;;0.50;99.90;;;;;;5060163;28;20043;-35
2023/01/25 01:31:00;;;;;;;54.10;32.17;;;0.60;99.90;;;;;;5077173;28;20436;-35
2023/01/25 01:33:26;;;;;;;52.17;29.10;;;0.50;99.90;;;;;;5077237;28;20446;-35
2023/01/25 01:35:52;;;;;;;58.90;34.17;;;0.50;99.90;;;;;;5077191;28;20036;-34
2023/01/25 01:38:17;;;;;;;51.85;31.80;;;0.50;99.90;;;;;;5077173;28;20072;-35
2023/01/25 01:40:44;;;;;;;49.55;28.67;;;0.50;99.90;;;;;;5076803;28;20113;-35
2023/01/25 01:43:19;;;;;;;51.78;31.05;;;0.50;99.90;;;;;;5076826;28;20503;-35
2023/01/25 01:45:54;;;;;;;50.45;29.33;;;0.40;99.90;;;;;;5076962;28;20477;-35
2023/01/25 01:48:32;;;;;;;53.20;30.73;;;0.40;99.90;;;;;;5076927;28;20040;-35
2023/01/25 01:51:06;;;;;;;51.15;29.05;;;0.50;99.90;;;;;;5076598;28;20055;-35
2023/01/25 01:53:33;;;;;;;52.60;30.17;;;0.40;99.90;;;;;;5076954;28;20064;-35
2023/01/25 01:56:04;;;;;;;52.50;30.38;;;0.40;99.90;;;;;;5076605;28;20389;-35
2023/01/25 01:58:31;;;;;;;53.08;31.00;;;0.40;99.90;;;;;;5076466;28;20036;-35
2023/01/25 02:00:57;;;;;;;53.47;31.25;;;0.50;99.90;;;;;;5076428;28;20040;-35
2023/01/25 02:03:23;;;;;;;54.80;29.98;;;0.50;99.90;;;;;;5076613;28;20047;-35
2023/01/25 02:05:52;;;;;;;51.55;31.35;;;0.50;99.90;;;;;;5076987;28;20118;-34
2023/01/25 02:08:19;;;;;;;51.83;29.27;;;0.50;99.90;;;;;;5065782;28;20037;-35
2023/01/25 02:10:46;;;;;;;51.38;30.60;;;0.50;99.90;;;;;;5059128;28;20569;-35
2023/01/25 02:13:12;;;;;;;47.47;29.48;;;0.50;99.90;;;;;;5076453;28;20348;-35
2023/01/25 02:15:43;;;;;;;53.88;30.73;;;0.50;99.90;;;;;;5076463;28;20459;-35
2023/01/25 02:18:10;;;;;;;52.95;29.50;;;0.50;99.90;;;;;;5075229;28;20071;-35
2023/01/25 02:20:44;;;;;;;49.90;30.38;;;0.50;99.90;;;;;;5076105;28;20036;-35
2023/01/25 02:23:14;;;;;;;53.90;30.30;;;0.50;99.90;;;;;;5076281;28;20162;-35
2023/01/25 02:25:40;;;;;;;49.33;28.63;;;0.50;99.90;;;;;;5086071;28;20044;-34
2023/01/25 02:28:26;;;;;;;51.97;29.25;;;0.40;99.90;;;;;;5076057;28;20063;-35
2023/01/25 02:30:52;;;;;;;50.22;30.08;;;0.40;99.90;;;;;;5075412;28;20040;-35
2023/01/25 02:33:18;;;;;;;49.17;28.95;;;0.40;99.90;;;;;;5059329;28;20446;-35
2023/01/25 02:35:47;;;;;;;52.67;30.05;;;0.40;99.90;;;;;;5075868;28;20044;-35
2023/01/25 02:38:15;;;;;;;50.08;29.45;;;0.40;99.90;;;;;;5076174;28;20040;-34
2023/01/25 02:41:11;;;;;;;55.13;30.60;;;0.50;99.90;;;;;;5075753;28;20047;-35
2023/01/25 02:43:37;;;;;;;46.45;27.65;;;0.50;99.90;;;;;;5072323;28;20037;-34
2023/01/25 02:46:30;;;;;;;54.30;30.83;;;0.50;99.90;;;;;;5055827;28;20040;-34
2023/01/25 02:48:57;;;;;;;53.78;30.60;;;0.50;99.90;;;;;;5068636;28;20036;-35
2023/01/25 02:51:25;;;;;;;48.95;30.15;;;0.50;99.90;;;;;;5061283;28;20521;-35
2023/01/25 02:53:51;;;;;;;54.95;30.40;;;0.40;99.90;;;;;;5075753;28;20058;-35
2023/01/25 02:56:18;;;;;;;52.88;30.00;;;0.40;99.90;;;;;;5075387;28;20115;-35
2023/01/25 02:58:44;;;;;;;55.85;30.77;;;0.40;99.90;;;;;;5058875;28;20492;-35
2023/01/25 03:01:10;;;;;;;49.92;28.90;;;0.40;99.90;;;;;;5075508;28;20047;-35
2023/01/25 03:03:36;;;;;;;55.33;29.33;;;0.40;99.90;;;;;;5075040;28;20067;-34
2023/01/25 03:06:02;;;;;;;54.42;31.15;;;0.40;99.90;;;;;;5075242;28;20044;-35
2023/01/25 03:08:28;;;;;;;50.65;29.42;;;0.40;99.90;;;;;;5075309;28;20043;-35
2023/01/25 03:10:58;;;;;;;56.35;30.63;;;0.40;99.90;;;;;;5075177;28;20503;-35
2023/01/25 03:13:24;;;;;;;52.28;29.02;;;0.40;99.90;;;;;;5075224;28;20051;-35
2023/01/25 03:15:50;;;;;;;51.03;29.50;;;0.40;99.90;;;;;;5075228;28;20086;-35
2023/01/25 03:18:16;;;;;;;51.13;28.95;;;0.40;99.90;;;;;;5074783;28;20089;-35
2023/01/25 03:20:41;;;;;;;51.33;28.75;;;0.30;99.90;;;;;;5074988;28;20123;-35
2023/01/25 03:23:07;;;;;;;52.20;28.10;;;0.40;99.90;;;;;;5074762;28;20155;-35
2023/01/25 03:25:33;;;;;;;58.60;32.83;;;0.40;99.90;;;;;;5074498;28;20028;-34
2023/01/25 03:27:59;;;;;;;52.20;31.13;;;0.40;99.90;;;;;;5067890;28;20378;-35
2023/01/25 03:30:24;;;;;;;51.40;29.58;;;0.40;99.90;;;;;;5054591;28;20033;-35
2023/01/25 03:32:51;;;;;;;54.58;30.95;;;0.40;99.90;;;;;;5059334;28;20044;-35
2023/01/25 03:35:17;;;;;;;52.70;30.05;;;0.40;99.90;;;;;;5074903;28;20035;-35
2023/01/25 03:37:43;;;;;;;51.65;29.38;;;0.40;99.90;;;;;;5074908;28;20472;-35
2023/01/25 03:40:10;;;;;;;52.22;29.15;;;0.30;99.90;;;;;;5093012;28;20028;-35
2023/01/25 03:42:35;;;;;;;48.63;27.30;;;0.30;99.90;;;;;;5074454;28;20038;-35
2023/01/25 03:45:01;;;;;;;49.20;27.50;;;0.40;99.90;;;;;;5074630;28;20119;-35
2023/01/25 03:47:27;;;;;;;46.72;27.92;;;0.30;99.90;;;;;;5074606;28;20560;-34
2023/01/25 03:49:53;;;;;;;52.38;28.95;;;0.30;99.90;;;;;;5074792;28;20044;-35
2023/01/25 03:52:18;;;;;;;49.85;28.92;;;0.30;99.90;;;;;;5074476;28;20476;-35
2023/01/25 03:54:44;;;;;;;46.55;27.88;;;0.30;99.90;;;;;;5074326;28;20036;-35
2023/01/25 03:57:11;;;;;;;48.58;27.80;;;0.30;99.90;;;;;;5074534;28;20043;-34
2023/01/25 03:59:37;;;;;;;49.13;28.63;;;0.30;99.90;;;;;;5074657;28;20113;-34
2023/01/25 04:02:03;;;;;;;49.78;29.13;;;0.30;99.90;;;;;;5074205;28;20071;-35
2023/01/25 04:04:28;;;;;;;48.97;28.73;;;0.30;99.90;;;;;;5074424;28;20111;-35
2023/01/25 04:06:54;;;;;;;60.67;33.85;;;0.30;99.90;;;;;;5073934;28;20039;-35
2023/01/25 04:09:20;;;;;;;51.30;28.73;;;0.40;99.90;;;;;;5057567;28;20036;-35
2023/01/25 04:11:49;;;;;;;59.03;37.67;;;0.30;99.90;;;;;;5073936;28;20040;-35
2023/01/25 04:14:14;;;;;;;62.42;38.17;;;0.30;99.90;;;;;;5073738;28;20040;-35
2023/01/25 04:16:40;;;;;;;44.97;27.25;;;0.30;99.90;;;;;;5062499;28;20039;-34
2023/01/25 04:19:06;;;;;;;46.42;27.58;;;0.30;99.90;;;;;;5057796;28;20107;-35
2023/01/25 04:21:32;;;;;;;43.88;25.85;;;0.30;99.90;;;;;;5074287;28;20046;-35
2023/01/25 04:23:57;;;;;;;47.90;28.10;;;0.30;99.90;;;;;;5072484;28;20036;-35
2023/01/25 04:28:51;;;;;;;49.60;27.48;;;0.30;99.90;;;;;;5100147;28;20058;-35
2023/01/25 04:31:17;;;;;;;43.90;26.83;;;0.30;99.90;;;;;;5090789;28;20032;-36
2023/01/25 04:33:42;;;;;;;46.33;26.35;;;0.30;99.90;;;;;;5093668;28;20292;-36
2023/01/25 04:36:08;;;;;;;44.15;25.27;;;0.30;99.90;;;;;;5087127;28;20039;-36
2023/01/25 04:38:43;;;;;;;43.42;26.27;;;0.30;99.90;;;;;;5095276;28;20036;-36
2023/01/25 04:41:09;;;;;;;46.05;27.02;;;0.30;99.90;;;;;;5085253;28;20046;-36
2023/01/25 04:43:35;;;;;;;42.78;25.98;;;0.30;99.90;;;;;;5095792;28;20542;-36
2023/01/25 04:46:01;;;;;;;42.45;24.73;;;0.30;99.90;;;;;;5103352;22;20074;-36
2023/01/25 04:48:27;;;;;;;44.22;25.10;;;0.30;99.90;;;;;;5098311;28;20047;-36
2023/01/25 04:50:53;;;;;;;41.55;23.83;;;0.20;99.90;;;;;;5094131;28;20449;-36
2023/01/25 04:53:19;;;;;;;45.25;26.23;;;0.20;99.90;;;;;;5087224;28;20039;-36
2023/01/25 04:55:46;;;;;;;47.75;26.35;;;0.20;99.90;;;;;;5077394;28;20044;-36
2023/01/25 04:58:12;;;;;;;43.97;26.33;;;0.20;99.90;;;;;;5094762;28;20113;-36
2023/01/25 05:00:38;;;;;;;45.95;26.13;;;0.20;99.90;;;;;;5074210;28;20453;-36
2023/01/25 05:03:04;;;;;;;48.08;27.20;;;0.10;99.90;;;;;;5065981;28;20050;-36
2023/01/25 05:05:30;;;;;;;48.05;27.13;;;0.10;99.90;;;;;;5084518;28;20039;-36
2023/01/25 05:07:56;;;;;;;44.33;25.85;;;0.10;99.90;;;;;;5069533;28;20044;-36
2023/01/25 05:10:21;;;;;;;45.05;25.42;;;0.10;99.90;;;;;;5077160;28;20031;-36
2023/01/25 05:12:47;;;;;;;44.78;25.25;;;0.10;99.90;;;;;;5094014;22;20043;-35
2023/01/25 05:15:13;;;;;;;46.70;26.38;;;0.10;99.90;;;;;;5057544;28;20491;-34
2023/01/25 05:17:39;;;;;;;46.38;26.95;;;0.10;99.90;;;;;;5057265;28;20048;-34
2023/01/25 05:20:05;;;;;;;46.03;26.83;;;0.20;99.90;;;;;;5039945;28;20482;-34
2023/01/25 05:22:31;;;;;;;47.40;27.27;;;0.10;99.90;;;;;;5043088;28;20041;-34
2023/01/25 05:24:58;;;;;;;48.90;29.55;;;0.10;99.90;;;;;;5038814;28;20045;-34
2023/01/25 05:27:23;;;;;;;48.55;28.30;;;0.20;99.90;;;;;;5045245;28;20036;-34
2023/01/25 05:29:49;;;;;;;47.40;26.33;;;0.20;99.90;;;;;;5038150;28;20044;-34
2023/01/25 05:32:18;;;;;;;47.97;27.75;;;0.20;99.90;;;;;;5041907;28;20032;-34
2023/01/25 05:34:44;;;;;;;57.70;32.20;;;0.20;99.90;;;;;;5036443;28;20036;-34
2023/01/25 05:37:12;;;;;;;50.75;30.80;;;0.20;99.90;;;;;;5036547;28;20444;-34
2023/01/25 05:39:38;;;;;;;48.97;28.40;;;0.10;99.90;;;;;;5036119;28;20033;-34
2023/01/25 05:42:13;;;;;;;49.33;27.80;;;0.20;99.90;;;;;;5036153;28;20396;-34
2023/01/25 05:44:39;;;;;;;46.05;26.50;;;0.20;99.90;;;;;;5036835;28;20091;-34
2023/01/25 05:47:05;;;;;;;46.50;26.90;;;0.10;99.90;;;;;;5036262;28;20037;-34
2023/01/25 05:49:30;;;;;;;46.15;26.23;;;0.10;99.90;;;;;;5036611;28;20075;-34
2023/01/25 05:51:56;;;;;;;43.33;26.23;;;0.10;99.90;;;;;;5035787;28;20060;-36
2023/01/25 05:54:22;;;;;;;44.13;25.55;;;0.10;99.90;;;;;;5036910;28;20037;-34
2023/01/25 05:56:49;;;;;;;43.80;26.67;;;0.10;99.90;;;;;;5036546;28;20068;-34
2023/01/25 05:59:16;;;;;;;47.70;26.48;;;0.10;99.90;;;;;;5034336;28;20087;-35
2023/01/25 06:01:42;;;;;;;46.17;27.20;;;0.10;99.90;;;;;;5030248;28;20501;-35
2023/01/25 06:04:16;;;;;;;44.85;26.90;;;0.10;99.90;;;;;;5041553;28;20044;-35
2023/01/25 06:06:42;;;;;;;49.90;27.77;;;0.10;99.90;;;;;;5036014;28;20033;-35
2023/01/25 06:09:12;;;;;;;46.90;27.45;;;0.10;99.90;;;;;;5036544;28;20039;-39
2023/01/25 06:11:39;;;;;;;44.00;26.63;;;0.10;99.90;;;;;;5036282;28;20037;-38
2023/01/25 06:14:04;;;;;;;49.35;27.83;;;0.10;99.90;;;;;;5055750;28;20044;-38
2023/01/25 06:16:30;;;;;;;43.42;25.23;;;0.10;99.90;;;;;;5058078;28;20243;-39
2023/01/25 06:18:56;;;;;;;46.30;26.48;;;0.10;99.90;;;;;;5061192;28;20561;-39
2023/01/25 06:21:21;;;;;;;46.05;25.95;;;0.10;99.90;;;;;;5051464;28;20135;-38
2023/01/25 06:23:47;;;;;;;43.75;25.25;;;0.10;99.90;;;;;;5055712;28;20059;-39
2023/01/25 06:26:14;;;;;;;42.28;25.33;;;0.10;99.90;;;;;;5052192;28;20060;-39
2023/01/25 06:28:40;;;;;;;43.70;24.90;;;0.10;99.90;;;;;;5054676;28;20076;-38
2023/01/25 06:31:08;;;;;;;45.65;24.95;;;0.10;99.90;;;;;;5055603;28;20055;-38
2023/01/25 06:33:35;;;;;;;46.05;26.00;;;0.10;99.90;;;;;;5055744;28;20048;-39
2023/01/25 06:36:07;;;;;;;41.78;23.67;;;0.10;99.90;;;;;;5057132;28;20044;-38
2023/01/25 06:38:33;;;;;;;44.03;25.75;;;0.20;99.90;;;;;;5055495;28;20036;-40
2023/01/25 06:41:03;;;;;;;38.47;22.50;;;0.10;99.90;;;;;;5057000;28;20448;-36
2023/01/25 06:43:31;;;;;;;38.22;23.08;;;0.10;99.90;;;;;;5056386;28;20125;-35
2023/01/25 06:45:58;;;;;;;43.05;24.67;;;0.10;99.90;;;;;;5056460;28;20493;-36
2023/01/25 06:48:24;;;;;;;41.15;26.02;;;0.10;99.90;;;;;;5067703;28;20045;-36
2023/01/25 06:50:58;;;;;;;41.22;23.10;;;0.10;99.90;;;;;;5066304;28;20040;-36
2023/01/25 06:53:26;;;;;;;42.50;24.67;;;0.10;99.90;;;;;;5061105;28;20038;-36
2023/01/25 06:56:07;;;;;;;40.63;23.77;;;0.10;99.90;;;;;;5054644;28;20029;-36
2023/01/25 06:58:33;;;;;;;38.45;23.35;;;0.10;99.90;;;;;;5067871;28;20024;-37
2023/01/25 07:01:11;;;;;;;40.63;23.63;;;0.10;99.90;;;;;;5072791;28;20123;-37
2023/01/25 07:03:37;;;;;;;41.08;22.88;;;0.10;99.90;;;;;;5064315;28;20079;-36
2023/01/25 07:06:05;;;;;;;40.40;23.52;;;0.10;99.90;;;;;;5060564;28;20102;-36
2023/01/25 07:08:32;;;;;;;42.35;24.10;;;0.10;99.90;;;;;;5070950;28;20033;-36
2023/01/25 07:11:00;;;;;;;40.50;23.45;;;0.10;99.90;;;;;;5055286;28;20370;-37
2023/01/25 07:13:28;;;;;;;37.65;22.33;;;0.10;99.90;;;;;;5054963;28;20083;-37
2023/01/25 07:15:58;;;;;;;36.78;23.00;;;0.00;99.90;;;;;;5055190;28;20033;-37
2023/01/25 07:18:26;;;;;;;37.72;22.30;;;0.00;99.90;;;;;;5062221;28;20070;-37
2023/01/25 07:20:52;;;;;;;37.95;21.55;;;0.00;99.90;;;;;;5066993;28;20419;-37
2023/01/25 07:23:18;;;;;;;43.17;23.65;;;0.00;99.90;;;;;;5054679;28;20094;-37
2023/01/25 07:25:46;;;;;;;39.35;21.63;;;-0.10;99.90;;;;;;5055427;28;20493;-37
2023/01/25 07:28:13;;;;;;;39.72;22.88;;;-0.10;99.90;;;;;;5054889;28;20534;-37
2023/01/25 07:30:40;;;;;;;40.85;23.80;;;-0.10;99.90;;;;;;5055001;28;20041;-37
2023/01/25 07:33:06;;;;;;;37.17;21.60;;;-0.10;99.90;;;;;;5054646;28;20033;-36
2023/01/25 07:35:32;;;;;;;37.85;22.30;;;-0.10;99.90;;;;;;5055061;28;20512;-36
2023/01/25 07:37:58;;;;;;;44.83;24.52;;;-0.10;99.90;;;;;;5054974;28;20546;-36
2023/01/25 07:40:24;;;;;;;43.80;24.13;;;-0.10;99.90;;;;;;5055022;28;20037;-36
2023/01/25 07:42:50;;;;;;;42.58;25.05;;;-0.10;99.90;;;;;;5054433;28;20101;-36
2023/01/25 07:45:16;;;;;;;40.22;23.75;;;0.00;99.90;;;;;;5062414;28;20052;-36
2023/01/25 07:47:42;;;;;;;40.65;24.92;;;-0.10;99.90;;;;;;5074443;28;20054;-37
2023/01/25 07:50:08;;;;;;;41.63;24.48;;;0.00;99.90;;;;;;5067785;28;20044;-36
2023/01/25 07:52:34;;;;;;;44.30;25.17;;;0.00;99.90;;;;;;5054419;28;20182;-36
2023/01/25 07:55:00;;;;;;;45.00;24.98;;;0.00;99.90;;;;;;5068136;28;20063;-37
2023/01/25 07:57:27;;;;;;;44.63;24.50;;;0.00;99.90;;;;;;5054296;28;20493;-36
2023/01/25 07:59:53;;;;;;;45.88;24.90;;;0.00;99.90;;;;;;5054386;28;20035;-37
2023/01/25 08:02:19;;;;;;;39.83;24.63;;;0.00;99.90;;;;;;5063254;28;20040;-37
2023/01/25 08:04:45;;;;;;;44.80;26.08;;;0.00;99.90;;;;;;5042310;28;20048;-36
2023/01/25 08:07:12;;;;;;;45.03;26.30;;;0.10;99.90;;;;;;5054220;28;20089;-36
2023/01/25 08:09:39;;;;;;;41.78;23.15;;;0.00;99.90;;;;;;5054436;28;20128;-37
2023/01/25 08:12:06;;;;;;;42.00;23.67;;;0.10;99.90;;;;;;5067464;28;20532;-36
2023/01/25 08:14:32;;;;;;;39.15;20.63;;;0.00;99.90;;;;;;5054582;28;20036;-37
2023/01/25 08:16:58;;;;;;;42.38;24.25;;;0.00;99.90;;;;;;5039732;28;20114;-36
2023/01/25 08:19:24;;;;;;;45.67;24.50;;;-0.10;99.90;;;;;;5033979;28;20033;-37
2023/01/25 08:21:51;;;;;;;42.92;23.90;;;-0.10;99.90;;;;;;5034358;28;20055;-37
2023/01/25 08:24:34;;;;;;;43.63;25.58;;;0.00;99.90;;;;;;5033531;28;20486;-38
2023/01/25 08:27:00;;;;;;;39.73;22.33;;;0.00;99.90;;;;;;5031263;28;20068;-36
2023/01/25 08:29:26;;;;;;;41.15;24.35;;;0.00;99.90;;;;;;5034941;28;20115;-36
2023/01/25 08:31:52;;;;;;;43.75;25.23;;;0.00;99.90;;;;;;5033625;28;20090;-35
2023/01/25 08:34:18;;;;;;;45.08;25.38;;;-0.10;99.90;;;;;;5033987;28;20045;-36
2023/01/25 08:36:44;;;;;;;45.78;25.52;;;0.00;99.90;;;;;;5040006;28;20032;-36
2023/01/25 08:39:11;;;;;;;46.22;25.92;;;0.00;99.90;;;;;;5035832;28;20054;-35
2023/01/25 08:41:38;;;;;;;46.65;25.20;;;0.00;99.90;;;;;;5048815;28;20048;-35
2023/01/25 08:44:04;;;;;;;48.72;26.52;;;0.00;99.90;;;;;;5047198;28;20394;-35
2023/01/25 08:46:32;;;;;;;47.78;26.33;;;0.00;99.90;;;;;;5050477;28;20532;-35
2023/01/25 08:49:00;;;;;;;46.92;26.27;;;0.00;99.90;;;;;;5046111;28;20405;-35
2023/01/25 08:51:26;;;;;;;45.80;24.17;;;0.00;99.90;;;;;;5040390;28;20112;-37
2023/01/25 08:53:52;;;;;;;47.42;25.40;;;0.00;99.90;;;;;;5074841;23;20587;-38
2023/01/25 08:56:17;;;;;;;43.75;24.65;;;0.00;99.90;;;;;;5074139;28;20123;-39
2023/01/25 08:58:48;;;;;;;40.92;23.80;;;0.00;99.90;;;;;;5073651;28;20035;-40
2023/01/25 09:01:16;;;;;;;42.78;23.85;;;-0.10;99.90;;;;;;5078270;28;20101;-36
2023/01/25 09:03:46;;;;;;;53.33;27.02;;;-0.10;99.90;;;;;;5054454;28;20036;-39
2023/01/25 09:06:13;;;;;;;47.50;25.20;;;-0.10;99.90;;;;;;5073725;28;20036;-38
2023/01/25 09:08:39;;;;;;;56.88;29.13;;;-0.10;99.90;;;;;;5048616;28;20041;-37
2023/01/25 09:11:11;;;;;;;46.65;25.45;;;-0.10;99.90;;;;;;5053111;28;20113;-38
2023/01/25 09:13:37;;;;;;;46.33;25.70;;;-0.10;99.90;;;;;;5070862;28;20047;-37
2023/01/25 09:16:08;;;;;;;39.88;23.88;;;0.00;99.90;;;;;;5053400;28;20123;-38
2023/01/25 09:18:36;;;;;;;45.42;24.40;;;0.00;99.90;;;;;;5057082;28;20055;-38
2023/01/25 09:21:16;;;;;;;43.60;25.33;;;0.00;99.90;;;;;;5060294;28;20040;-38
2023/01/25 09:23:47;;;;;;;47.90;26.05;;;0.00;99.90;;;;;;5053582;28;20091;-38
2023/01/25 09:26:14;;;;;;;43.53;24.92;;;0.00;99.90;;;;;;5055558;28;20063;-40
2023/01/25 09:28:41;;;;;;;43.67;23.90;;;0.00;99.90;;;;;;5079511;28;20040;-37
2023/01/25 09:31:09;;;;;;;44.30;25.08;;;0.00;99.90;;;;;;5072359;28;20425;-37
2023/01/25 09:33:37;;;;;;;42.13;23.83;;;0.00;99.90;;;;;;5074739;28;20039;-38
2023/01/25 09:36:04;;;;;;;45.75;25.85;;;0.10;99.90;;;;;;5078241;28;20396;-36
2023/01/25 09:38:29;;;;;;;42.90;25.02;;;0.10;99.90;;;;;;5077967;28;20399;-37
2023/01/25 09:41:13;;;;;;;48.70;26.48;;;0.10;99.90;;;;;;5078026;28;20028;-36
2023/01/25 09:43:58;;;;;;;41.60;24.45;;;0.20;99.90;;;;;;5077774;28;20495;-36
2023/01/25 09:46:41;;;;;;;46.25;24.65;;;0.20;99.90;;;;;;5085628;28;20123;-38
2023/01/25 09:49:45;;;;;;;43.47;24.85;;;0.20;99.90;;;;;;5096922;28;20035;-36
2023/01/25 09:52:23;;;;;;;43.17;24.15;;;0.20;99.90;;;;;;5069445;28;20083;-36
2023/01/25 09:54:49;;;;;;;44.95;24.38;;;0.20;99.90;;;;;;5096208;28;20067;-36
2023/01/25 09:57:25;;;;;;;45.75;24.80;;;0.20;99.90;;;;;;5078456;28;20503;-36
2023/01/25 09:59:52;;;;;;;44.17;24.23;;;0.10;99.90;;;;;;5078051;28;20064;-35
2023/01/25 10:02:24;;;;;;;43.75;23.92;;;0.10;99.90;;;;;;5077736;28;20044;-36
2023/01/25 10:04:53;;;;;;;44.65;23.80;;;0.10;99.90;;;;;;5057977;28;20456;-36
2023/01/25 10:07:42;;;;;;;45.33;25.77;;;0.10;99.90;;;;;;5070722;28;20119;-36
2023/01/25 10:10:54;;;;;;;41.40;24.63;;;0.10;99.90;;;;;;5077594;28;20040;-36
2023/01/25 10:13:22;;;;;;;45.63;25.42;;;0.20;99.90;;;;;;5016354;28;20116;-36
2023/01/25 10:15:58;;;;;;;45.60;24.80;;;0.20;99.90;;;;;;5016481;28;20514;-36
2023/01/25 10:18:55;;;;;;;45.33;23.77;;;0.20;99.90;;;;;;5076161;28;20126;-36
2023/01/25 10:21:28;;;;;;;43.58;25.10;;;0.20;99.90;;;;;;5099082;28;20040;-36
2023/01/25 10:24:25;;;;;;;41.20;24.02;;;0.20;99.90;;;;;;5095688;28;20111;-36
2023/01/25 10:27:09;;;;;;;40.95;23.65;;;0.20;99.90;;;;;;5077493;28;20040;-35
2023/01/25 10:29:38;;;;;;;44.58;24.40;;;0.20;99.90;;;;;;5078239;28;20470;-35
2023/01/25 10:32:59;;;;;;;40.10;22.33;;;0.20;99.90;;;;;;5077408;28;20182;-35
2023/01/25 10:35:35;;;;;;;40.53;22.10;;;0.20;99.90;;;;;;5095371;28;20170;-35
2023/01/25 10:38:25;;;;;;;41.20;23.27;;;0.20;99.90;;;;;;5077836;28;20040;-35
2023/01/25 10:41:14;;;;;;;39.65;23.45;;;0.20;99.90;;;;;;5077429;28;20044;-35
2023/01/25 10:47:45;;;;;;;43.25;23.33;;;0.20;99.90;;;;;;5095304;28;20454;-35
2023/01/25 10:50:40;;;;;;;42.22;23.42;;;0.20;99.90;;;;;;5076942;28;20505;-35
2023/01/25 10:53:35;;;;;;;43.45;23.25;;;0.20;99.90;;;;;;5076867;28;20178;-35
2023/01/25 10:56:10;;;;;;;44.13;23.15;;;0.20;99.90;;;;;;5057170;28;20047;-36
2023/01/25 10:58:45;;;;;;;41.22;23.65;;;0.30;99.90;;;;;;5076942;28;20178;-35
2023/01/25 11:01:24;;;;;;;39.30;22.77;;;0.30;99.90;;;;;;5077048;28;20438;-35
2023/01/25 11:03:50;;;;;;;42.85;23.27;;;0.20;99.90;;;;;;5076979;28;20047;-36
2023/01/25 11:06:32;;;;;;;43.22;23.15;;;0.20;99.90;;;;;;5077200;28;20391;-35
2023/01/25 11:08:58;;;;;;;44.30;23.20;;;0.20;99.90;;;;;;5076528;28;20044;-35
2023/01/25 11:11:38;;;;;;;43.17;23.05;;;0.20;99.90;;;;;;5076975;28;20036;-35
2023/01/25 11:14:17;;;;;;;47.10;23.67;;;0.20;99.90;;;;;;5095129;28;20102;-35
2023/01/25 11:16:49;;;;;;;46.30;25.65;;;0.20;99.90;;;;;;5076918;28;20118;-35
2023/01/25 11:19:39;;;;;;;45.80;26.63;;;0.20;99.90;;;;;;5076437;28;20036;-35
2023/01/25 11:22:22;;;;;;;50.75;26.50;;;0.20;99.90;;;;;;5087589;28;20054;-35
2023/01/25 11:24:48;;;;;;;48.50;27.27;;;0.20;99.90;;;;;;5075868;28;20046;-35
2023/01/25 11:27:22;;;;;;;42.17;25.05;;;0.20;99.90;;;;;;5076453;28;20040;-37
2023/01/25 11:30:14;;;;;;;;;;;0.10;99.90;;;;;;5095096;28;20043;-35
2023/01/25 11:32:40;;;;;;;42.03;21.63;;;0.10;99.90;;;;;;5074066;28;19920;-35
2023/01/25 11:35:28;;;;;;;41.20;24.65;;;0.10;99.90;;;;;;5094910;28;20043;-35
2023/01/25 11:37:59;;;;;;;47.45;25.02;;;0.20;99.90;;;;;;5076297;28;20036;-35
2023/01/25 11:40:47;;;;;;;52.90;31.15;;;0.20;99.90;;;;;;5076493;28;20036;-35
2023/01/25 11:43:47;;;;;;;49.70;26.08;;;0.20;99.90;;;;;;5076473;28;20501;-35
2023/01/25 11:46:23;;;;;;;45.10;24.80;;;0.20;99.90;;;;;;5076120;28;20040;-35
2023/01/25 11:49:10;;;;;;;46.53;25.60;;;0.10;99.90;;;;;;5076645;28;20481;-38
2023/01/25 11:51:47;;;;;;;44.22;22.02;;;0.10;99.90;;;;;;5094325;28;20039;-35
2023/01/25 11:54:40;;;;;;;54.85;29.42;;;0.10;99.90;;;;;;5076158;28;20040;-36
2023/01/25 11:57:20;;;;;;;40.08;22.27;;;0.20;99.90;;;;;;5076138;28;20127;-35
2023/01/25 11:59:53;;;;;;;42.85;22.38;;;0.10;99.90;;;;;;5076100;28;20035;-35
2023/01/25 12:03:01;;;;;;;35.10;20.47;;;0.10;99.90;;;;;;5076436;28;20044;-35
2023/01/25 12:05:37;;;;;;;36.88;20.27;;;0.10;99.90;;;;;;5066659;23;20083;-37
2023/01/25 12:08:33;;;;;;;39.92;22.38;;;0.10;99.90;;;;;;5076419;28;20129;-38
2023/01/25 12:11:21;;;;;;;40.90;22.35;;;0.00;99.90;;;;;;5092065;28;20055;-37
2023/01/25 12:14:01;;;;;;;40.75;22.67;;;0.00;99.90;;;;;;5050085;28;20033;-37
2023/01/25 12:16:33;;;;;;;39.00;21.27;;;0.00;99.90;;;;;;5068934;28;20059;-37
2023/01/25 12:19:19;;;;;;;38.92;21.13;;;0.00;99.90;;;;;;5056682;28;20037;-37
2023/01/25 12:21:57;;;;;;;38.90;20.35;;;0.00;99.90;;;;;;5012927;28;20048;-37
2023/01/25 12:24:38;;;;;;;37.63;21.92;;;-0.10;99.90;;;;;;5054432;28;20048;-37
2023/01/25 12:27:16;;;;;;;40.33;21.20;;;-0.10;99.90;;;;;;5039456;28;20048;-37
2023/01/25 12:29:58;;;;;;;42.00;23.48;;;-0.10;99.90;;;;;;5049823;28;20583;-37
2023/01/25 12:32:36;;;;;;;41.35;22.05;;;-0.10;99.90;;;;;;5054121;28;20370;-37
2023/01/25 12:35:33;;;;;;;42.33;21.60;;;-0.10;99.90;;;;;;5073127;28;20038;-37
2023/01/25 12:38:03;;;;;;;39.53;22.25;;;-0.10;99.90;;;;;;5052144;28;20032;-37
2023/01/25 12:40:35;;;;;;;43.92;22.60;;;-0.10;99.90;;;;;;5051682;28;20032;-36
2023/01/25 12:43:01;;;;;;;43.53;23.13;;;-0.10;99.90;;;;;;5061148;28;20044;-37
2023/01/25 12:45:34;;;;;;;45.08;21.92;;;-0.10;99.90;;;;;;5039827;28;20371;-37
2023/01/25 12:48:08;;;;;;;40.92;23.48;;;0.00;99.90;;;;;;5032340;28;20049;-37
2023/01/25 12:50:38;;;;;;;;;;;0.00;99.90;;;;;;5052437;28;20037;-37
2023/01/25 12:53:14;;;;;;;50.03;24.70;;;-0.10;99.90;;;;;;5046790;28;19916;-37
2023/01/25 12:55:40;;;;;;;43.40;23.10;;;-0.10;99.90;;;;;;5066470;28;20089;-37
2023/01/25 13:01:22;;;;;;;44.83;22.67;;;0.10;99.90;;;;;;5110802;28;20047;-36
2023/01/25 13:04:30;;;;;;;46.17;23.20;;;0.00;99.90;;;;;;5053279;28;20037;-36